sensor_id;sensor_type;location;lat;lon;timestamp;P1;durP1;ratioP1;P2;durP2;ratioP2
69985;SDS011;57328;52.054;5.294;2023-05-07T00:02:18;20.33;;;12.65;;
69985;SDS011;57328;52.054;5.294;2023-05-07T00:04:45;18.20;;;12.57;;
69985;SDS011;57328;52.054;5.294;2023-05-07T00:07:13;17.77;;;10.90;;
69985;SDS011;57328;52.054;5.294;2023-05-07T00:09:41;19.77;;;12.25;;
69985;SDS011;57328;52.054;5.294;2023-05-07T00:12:08;17.65;;;10.95;;
69985;SDS011;57328;52.054;5.294;2023-05-07T00:14:36;19.30;;;11.93;;
69985;SDS011;57328;52.054;5.294;2023-05-07T00:17:03;17.73;;;10.85;;
69985;SDS011;57328;52.054;5.294;2023-05-07T00:19:30;18.90;;;10.95;;
69985;SDS011;57328;52.054;5.294;2023-05-07T00:21:58;18.08;;;11.18;;
69985;SDS011;57328;52.054;5.294;2023-05-07T00:24:25;17.83;;;10.50;;
69985;SDS011;57328;52.054;5.294;2023-05-07T00:26:52;17.13;;;10.57;;
69985;SDS011;57328;52.054;5.294;2023-05-07T00:29:19;18.02;;;10.45;;
69985;SDS011;57328;52.054;5.294;2023-05-07T00:31:48;17.08;;;9.52;;
69985;SDS011;57328;52.054;5.294;2023-05-07T00:34:16;17.75;;;10.90;;
69985;SDS011;57328;52.054;5.294;2023-05-07T00:36:43;13.73;;;9.50;;
69985;SDS011;57328;52.054;5.294;2023-05-07T00:39:10;14.82;;;9.05;;
69985;SDS011;57328;52.054;5.294;2023-05-07T00:41:37;14.68;;;9.60;;
69985;SDS011;57328;52.054;5.294;2023-05-07T00:44:05;14.40;;;9.57;;
69985;SDS011;57328;52.054;5.294;2023-05-07T00:46:32;14.20;;;7.90;;
69985;SDS011;57328;52.054;5.294;2023-05-07T00:49:00;13.70;;;8.80;;
69985;SDS011;57328;52.054;5.294;2023-05-07T00:51:27;13.13;;;8.52;;
69985;SDS011;57328;52.054;5.294;2023-05-07T00:53:55;14.95;;;8.57;;
69985;SDS011;57328;52.054;5.294;2023-05-07T00:56:23;12.65;;;7.57;;
69985;SDS011;57328;52.054;5.294;2023-05-07T00:58:50;12.52;;;7.95;;
69985;SDS011;57328;52.054;5.294;2023-05-07T01:01:17;15.90;;;7.95;;
69985;SDS011;57328;52.054;5.294;2023-05-07T01:03:45;11.80;;;7.78;;
69985;SDS011;57328;52.054;5.294;2023-05-07T01:06:13;15.15;;;8.63;;
69985;SDS011;57328;52.054;5.294;2023-05-07T01:08:43;13.90;;;7.90;;
69985;SDS011;57328;52.054;5.294;2023-05-07T01:11:11;12.07;;;7.30;;
69985;SDS011;57328;52.054;5.294;2023-05-07T01:13:38;14.43;;;8.20;;
69985;SDS011;57328;52.054;5.294;2023-05-07T01:16:06;14.32;;;8.50;;
69985;SDS011;57328;52.054;5.294;2023-05-07T01:18:33;15.23;;;7.72;;
69985;SDS011;57328;52.054;5.294;2023-05-07T01:21:01;12.98;;;8.27;;
69985;SDS011;57328;52.054;5.294;2023-05-07T01:23:30;13.27;;;7.57;;
69985;SDS011;57328;52.054;5.294;2023-05-07T01:25:57;11.13;;;7.28;;
69985;SDS011;57328;52.054;5.294;2023-05-07T01:28:25;15.63;;;8.30;;
69985;SDS011;57328;52.054;5.294;2023-05-07T01:30:53;12.98;;;8.57;;
69985;SDS011;57328;52.054;5.294;2023-05-07T01:33:22;14.05;;;8.40;;
69985;SDS011;57328;52.054;5.294;2023-05-07T01:35:51;13.65;;;8.48;;
69985;SDS011;57328;52.054;5.294;2023-05-07T01:38:20;13.35;;;8.15;;
69985;SDS011;57328;52.054;5.294;2023-05-07T01:40:48;13.20;;;8.15;;
69985;SDS011;57328;52.054;5.294;2023-05-07T01:43:15;13.70;;;7.90;;
69985;SDS011;57328;52.054;5.294;2023-05-07T01:45:43;11.65;;;7.80;;
69985;SDS011;57328;52.054;5.294;2023-05-07T01:48:11;12.93;;;8.18;;
69985;SDS011;57328;52.054;5.294;2023-05-07T01:50:38;12.68;;;8.00;;
69985;SDS011;57328;52.054;5.294;2023-05-07T01:53:06;12.63;;;7.70;;
69985;SDS011;57328;52.054;5.294;2023-05-07T01:55:33;12.73;;;7.30;;
69985;SDS011;57328;52.054;5.294;2023-05-07T01:58:03;14.85;;;7.80;;
69985;SDS011;57328;52.054;5.294;2023-05-07T02:00:30;13.80;;;7.53;;
69985;SDS011;57328;52.054;5.294;2023-05-07T02:02:58;12.80;;;7.55;;
69985;SDS011;57328;52.054;5.294;2023-05-07T02:05:25;12.52;;;7.53;;
69985;SDS011;57328;52.054;5.294;2023-05-07T02:07:53;13.30;;;7.10;;
69985;SDS011;57328;52.054;5.294;2023-05-07T02:10:20;12.02;;;7.03;;
69985;SDS011;57328;52.054;5.294;2023-05-07T02:12:47;12.48;;;7.45;;
69985;SDS011;57328;52.054;5.294;2023-05-07T02:15:14;14.82;;;7.97;;
69985;SDS011;57328;52.054;5.294;2023-05-07T02:20:27;13.90;;;7.93;;
69985;SDS011;57328;52.054;5.294;2023-05-07T02:22:54;14.70;;;8.18;;
69985;SDS011;57328;52.054;5.294;2023-05-07T02:25:22;14.02;;;8.10;;
69985;SDS011;57328;52.054;5.294;2023-05-07T02:27:49;15.27;;;8.32;;
69985;SDS011;57328;52.054;5.294;2023-05-07T02:30:16;12.63;;;8.60;;
69985;SDS011;57328;52.054;5.294;2023-05-07T02:32:43;12.00;;;8.32;;
69985;SDS011;57328;52.054;5.294;2023-05-07T02:35:11;15.00;;;8.50;;
69985;SDS011;57328;52.054;5.294;2023-05-07T02:37:38;13.85;;;8.75;;
69985;SDS011;57328;52.054;5.294;2023-05-07T02:40:05;14.65;;;8.55;;
69985;SDS011;57328;52.054;5.294;2023-05-07T02:42:33;13.07;;;8.93;;
69985;SDS011;57328;52.054;5.294;2023-05-07T02:45:00;14.98;;;9.32;;
69985;SDS011;57328;52.054;5.294;2023-05-07T02:47:27;14.68;;;8.82;;
69985;SDS011;57328;52.054;5.294;2023-05-07T02:49:55;15.18;;;9.38;;
69985;SDS011;57328;52.054;5.294;2023-05-07T02:52:22;13.80;;;9.20;;
69985;SDS011;57328;52.054;5.294;2023-05-07T02:54:49;15.32;;;9.40;;
69985;SDS011;57328;52.054;5.294;2023-05-07T02:57:16;16.58;;;9.73;;
69985;SDS011;57328;52.054;5.294;2023-05-07T02:59:44;13.68;;;9.13;;
69985;SDS011;57328;52.054;5.294;2023-05-07T03:02:11;15.77;;;9.30;;
69985;SDS011;57328;52.054;5.294;2023-05-07T03:04:39;15.10;;;8.98;;
69985;SDS011;57328;52.054;5.294;2023-05-07T03:07:06;12.43;;;8.50;;
69985;SDS011;57328;52.054;5.294;2023-05-07T03:09:33;13.63;;;9.35;;
69985;SDS011;57328;52.054;5.294;2023-05-07T03:12:00;14.10;;;9.32;;
69985;SDS011;57328;52.054;5.294;2023-05-07T03:14:28;15.93;;;9.57;;
69985;SDS011;57328;52.054;5.294;2023-05-07T03:16:55;16.08;;;9.60;;
69985;SDS011;57328;52.054;5.294;2023-05-07T03:19:22;13.93;;;9.68;;
69985;SDS011;57328;52.054;5.294;2023-05-07T03:21:49;19.98;;;9.60;;
69985;SDS011;57328;52.054;5.294;2023-05-07T03:24:16;18.38;;;10.63;;
69985;SDS011;57328;52.054;5.294;2023-05-07T03:26:44;16.88;;;10.00;;
69985;SDS011;57328;52.054;5.294;2023-05-07T03:29:11;17.77;;;10.57;;
69985;SDS011;57328;52.054;5.294;2023-05-07T03:31:38;19.00;;;10.95;;
69985;SDS011;57328;52.054;5.294;2023-05-07T03:34:05;17.73;;;11.13;;
69985;SDS011;57328;52.054;5.294;2023-05-07T03:36:32;17.85;;;11.57;;
69985;SDS011;57328;52.054;5.294;2023-05-07T03:39:00;19.75;;;11.50;;
69985;SDS011;57328;52.054;5.294;2023-05-07T03:41:27;18.65;;;11.40;;
69985;SDS011;57328;52.054;5.294;2023-05-07T03:46:22;17.45;;;10.63;;
69985;SDS011;57328;52.054;5.294;2023-05-07T03:48:52;19.25;;;11.98;;
69985;SDS011;57328;52.054;5.294;2023-05-07T03:51:19;19.38;;;12.32;;
69985;SDS011;57328;52.054;5.294;2023-05-07T03:53:46;21.10;;;12.80;;
69985;SDS011;57328;52.054;5.294;2023-05-07T03:56:13;21.23;;;13.85;;
69985;SDS011;57328;52.054;5.294;2023-05-07T03:58:43;21.75;;;12.80;;
69985;SDS011;57328;52.054;5.294;2023-05-07T04:01:10;20.88;;;13.40;;
69985;SDS011;57328;52.054;5.294;2023-05-07T04:03:38;20.95;;;13.82;;
69985;SDS011;57328;52.054;5.294;2023-05-07T04:06:05;20.88;;;13.10;;
69985;SDS011;57328;52.054;5.294;2023-05-07T04:08:32;23.52;;;14.05;;
69985;SDS011;57328;52.054;5.294;2023-05-07T04:11:00;21.92;;;14.52;;
69985;SDS011;57328;52.054;5.294;2023-05-07T04:13:27;22.02;;;14.05;;
69985;SDS011;57328;52.054;5.294;2023-05-07T04:15:54;21.85;;;13.85;;
69985;SDS011;57328;52.054;5.294;2023-05-07T04:18:22;25.48;;;15.68;;
69985;SDS011;57328;52.054;5.294;2023-05-07T04:20:49;22.55;;;14.40;;
69985;SDS011;57328;52.054;5.294;2023-05-07T04:23:16;23.30;;;14.57;;
69985;SDS011;57328;52.054;5.294;2023-05-07T04:25:43;23.60;;;15.30;;
69985;SDS011;57328;52.054;5.294;2023-05-07T04:28:11;22.25;;;14.25;;
69985;SDS011;57328;52.054;5.294;2023-05-07T04:30:38;22.70;;;13.45;;
69985;SDS011;57328;52.054;5.294;2023-05-07T04:33:05;22.10;;;13.88;;
69985;SDS011;57328;52.054;5.294;2023-05-07T04:35:33;21.83;;;14.75;;
69985;SDS011;57328;52.054;5.294;2023-05-07T04:38:00;21.83;;;14.70;;
69985;SDS011;57328;52.054;5.294;2023-05-07T04:40:27;22.75;;;13.32;;
69985;SDS011;57328;52.054;5.294;2023-05-07T04:42:55;23.17;;;14.65;;
69985;SDS011;57328;52.054;5.294;2023-05-07T04:45:22;24.38;;;15.48;;
69985;SDS011;57328;52.054;5.294;2023-05-07T04:47:49;25.75;;;15.65;;
69985;SDS011;57328;52.054;5.294;2023-05-07T04:50:16;22.25;;;14.38;;
69985;SDS011;57328;52.054;5.294;2023-05-07T04:52:45;21.25;;;14.23;;
69985;SDS011;57328;52.054;5.294;2023-05-07T04:55:12;22.95;;;14.20;;
69985;SDS011;57328;52.054;5.294;2023-05-07T04:57:39;22.20;;;14.77;;
69985;SDS011;57328;52.054;5.294;2023-05-07T05:00:07;19.42;;;12.93;;
69985;SDS011;57328;52.054;5.294;2023-05-07T05:02:35;21.83;;;14.80;;
69985;SDS011;57328;52.054;5.294;2023-05-07T05:05:03;22.48;;;14.63;;
69985;SDS011;57328;52.054;5.294;2023-05-07T05:07:30;20.55;;;13.55;;
69985;SDS011;57328;52.054;5.294;2023-05-07T05:09:57;19.63;;;13.10;;
69985;SDS011;57328;52.054;5.294;2023-05-07T05:12:25;19.73;;;13.27;;
69985;SDS011;57328;52.054;5.294;2023-05-07T05:14:52;22.63;;;14.35;;
69985;SDS011;57328;52.054;5.294;2023-05-07T05:17:19;21.23;;;14.02;;
69985;SDS011;57328;52.054;5.294;2023-05-07T05:19:46;21.52;;;13.57;;
69985;SDS011;57328;52.054;5.294;2023-05-07T05:22:13;22.20;;;12.68;;
69985;SDS011;57328;52.054;5.294;2023-05-07T05:24:41;21.13;;;11.70;;
69985;SDS011;57328;52.054;5.294;2023-05-07T05:27:08;19.42;;;13.40;;
69985;SDS011;57328;52.054;5.294;2023-05-07T05:29:35;20.15;;;12.00;;
69985;SDS011;57328;52.054;5.294;2023-05-07T05:32:03;18.50;;;12.60;;
69985;SDS011;57328;52.054;5.294;2023-05-07T05:34:30;19.67;;;13.25;;
69985;SDS011;57328;52.054;5.294;2023-05-07T05:36:59;18.83;;;12.60;;
69985;SDS011;57328;52.054;5.294;2023-05-07T05:39:26;18.90;;;12.65;;
69985;SDS011;57328;52.054;5.294;2023-05-07T05:41:53;19.60;;;12.75;;
69985;SDS011;57328;52.054;5.294;2023-05-07T05:44:20;19.25;;;12.15;;
69985;SDS011;57328;52.054;5.294;2023-05-07T05:46:48;19.77;;;13.35;;
69985;SDS011;57328;52.054;5.294;2023-05-07T05:49:21;19.92;;;13.60;;
69985;SDS011;57328;52.054;5.294;2023-05-07T05:51:48;22.15;;;13.05;;
69985;SDS011;57328;52.054;5.294;2023-05-07T05:54:15;22.02;;;13.85;;
69985;SDS011;57328;52.054;5.294;2023-05-07T05:56:42;19.15;;;13.00;;
69985;SDS011;57328;52.054;5.294;2023-05-07T05:59:09;19.58;;;13.45;;
69985;SDS011;57328;52.054;5.294;2023-05-07T06:01:37;22.60;;;13.43;;
69985;SDS011;57328;52.054;5.294;2023-05-07T06:04:04;21.50;;;13.98;;
69985;SDS011;57328;52.054;5.294;2023-05-07T06:06:31;23.20;;;14.00;;
69985;SDS011;57328;52.054;5.294;2023-05-07T06:08:59;20.15;;;13.43;;
69985;SDS011;57328;52.054;5.294;2023-05-07T06:11:26;24.30;;;14.57;;
69985;SDS011;57328;52.054;5.294;2023-05-07T06:13:53;22.15;;;13.70;;
69985;SDS011;57328;52.054;5.294;2023-05-07T06:16:20;21.08;;;13.82;;
69985;SDS011;57328;52.054;5.294;2023-05-07T06:18:47;23.50;;;13.75;;
69985;SDS011;57328;52.054;5.294;2023-05-07T06:21:15;24.33;;;14.13;;
69985;SDS011;57328;52.054;5.294;2023-05-07T06:23:42;21.95;;;13.15;;
69985;SDS011;57328;52.054;5.294;2023-05-07T06:26:09;22.58;;;14.80;;
69985;SDS011;57328;52.054;5.294;2023-05-07T06:28:36;22.50;;;13.60;;
69985;SDS011;57328;52.054;5.294;2023-05-07T06:33:40;21.60;;;13.18;;
69985;SDS011;57328;52.054;5.294;2023-05-07T06:36:07;22.85;;;13.75;;
69985;SDS011;57328;52.054;5.294;2023-05-07T06:38:34;22.77;;;13.70;;
69985;SDS011;57328;52.054;5.294;2023-05-07T06:41:01;19.77;;;13.50;;
69985;SDS011;57328;52.054;5.294;2023-05-07T06:43:28;23.73;;;13.82;;
69985;SDS011;57328;52.054;5.294;2023-05-07T06:45:56;21.23;;;13.70;;
69985;SDS011;57328;52.054;5.294;2023-05-07T06:48:23;22.67;;;14.07;;
69985;SDS011;57328;52.054;5.294;2023-05-07T06:50:50;19.90;;;12.57;;
69985;SDS011;57328;52.054;5.294;2023-05-07T06:53:17;21.08;;;12.65;;
69985;SDS011;57328;52.054;5.294;2023-05-07T06:55:45;23.95;;;14.10;;
69985;SDS011;57328;52.054;5.294;2023-05-07T06:58:12;24.73;;;13.93;;
69985;SDS011;57328;52.054;5.294;2023-05-07T07:00:39;21.38;;;12.68;;
69985;SDS011;57328;52.054;5.294;2023-05-07T07:03:06;25.55;;;13.63;;
69985;SDS011;57328;52.054;5.294;2023-05-07T07:05:34;26.30;;;13.68;;
69985;SDS011;57328;52.054;5.294;2023-05-07T07:08:01;20.98;;;13.30;;
69985;SDS011;57328;52.054;5.294;2023-05-07T07:10:28;23.75;;;13.55;;
69985;SDS011;57328;52.054;5.294;2023-05-07T07:12:55;22.15;;;13.75;;
69985;SDS011;57328;52.054;5.294;2023-05-07T07:15:22;21.35;;;12.95;;
69985;SDS011;57328;52.054;5.294;2023-05-07T07:17:51;23.80;;;13.60;;
69985;SDS011;57328;52.054;5.294;2023-05-07T07:20:18;19.15;;;12.63;;
69985;SDS011;57328;52.054;5.294;2023-05-07T07:22:45;19.50;;;11.98;;
69985;SDS011;57328;52.054;5.294;2023-05-07T07:25:12;19.52;;;12.60;;
69985;SDS011;57328;52.054;5.294;2023-05-07T07:27:40;19.00;;;11.90;;
69985;SDS011;57328;52.054;5.294;2023-05-07T07:30:07;18.98;;;12.00;;
69985;SDS011;57328;52.054;5.294;2023-05-07T07:32:35;21.15;;;12.15;;
69985;SDS011;57328;52.054;5.294;2023-05-07T07:35:02;19.63;;;13.00;;
69985;SDS011;57328;52.054;5.294;2023-05-07T07:37:30;19.67;;;12.48;;
69985;SDS011;57328;52.054;5.294;2023-05-07T07:39:57;17.15;;;11.85;;
69985;SDS011;57328;52.054;5.294;2023-05-07T07:42:25;17.17;;;12.20;;
69985;SDS011;57328;52.054;5.294;2023-05-07T07:44:52;17.02;;;11.43;;
69985;SDS011;57328;52.054;5.294;2023-05-07T07:47:19;19.52;;;12.23;;
69985;SDS011;57328;52.054;5.294;2023-05-07T07:49:46;18.98;;;12.38;;
69985;SDS011;57328;52.054;5.294;2023-05-07T07:52:13;19.02;;;12.25;;
69985;SDS011;57328;52.054;5.294;2023-05-07T07:54:40;18.70;;;12.45;;
69985;SDS011;57328;52.054;5.294;2023-05-07T07:57:07;17.10;;;12.10;;
69985;SDS011;57328;52.054;5.294;2023-05-07T07:59:35;19.98;;;13.50;;
69985;SDS011;57328;52.054;5.294;2023-05-07T08:02:02;18.50;;;12.10;;
69985;SDS011;57328;52.054;5.294;2023-05-07T08:04:29;18.48;;;12.07;;
69985;SDS011;57328;52.054;5.294;2023-05-07T08:06:59;19.00;;;12.38;;
69985;SDS011;57328;52.054;5.294;2023-05-07T08:09:26;20.10;;;12.48;;
69985;SDS011;57328;52.054;5.294;2023-05-07T08:11:53;18.50;;;11.70;;
69985;SDS011;57328;52.054;5.294;2023-05-07T08:14:21;20.63;;;13.27;;
69985;SDS011;57328;52.054;5.294;2023-05-07T08:16:48;23.15;;;14.00;;
69985;SDS011;57328;52.054;5.294;2023-05-07T08:19:15;20.88;;;12.38;;
69985;SDS011;57328;52.054;5.294;2023-05-07T08:21:42;20.60;;;12.77;;
69985;SDS011;57328;52.054;5.294;2023-05-07T08:24:10;20.95;;;12.98;;
69985;SDS011;57328;52.054;5.294;2023-05-07T08:26:37;20.20;;;12.63;;
69985;SDS011;57328;52.054;5.294;2023-05-07T08:29:05;19.52;;;12.95;;
69985;SDS011;57328;52.054;5.294;2023-05-07T08:31:32;21.80;;;12.90;;
69985;SDS011;57328;52.054;5.294;2023-05-07T08:34:00;19.55;;;12.80;;
69985;SDS011;57328;52.054;5.294;2023-05-07T08:36:27;20.45;;;12.60;;
69985;SDS011;57328;52.054;5.294;2023-05-07T08:38:54;22.10;;;14.52;;
69985;SDS011;57328;52.054;5.294;2023-05-07T08:41:22;19.52;;;13.43;;
69985;SDS011;57328;52.054;5.294;2023-05-07T08:43:49;21.50;;;14.65;;
69985;SDS011;57328;52.054;5.294;2023-05-07T08:46:17;20.50;;;13.95;;
69985;SDS011;57328;52.054;5.294;2023-05-07T08:48:48;21.77;;;13.68;;
69985;SDS011;57328;52.054;5.294;2023-05-07T08:51:16;21.80;;;14.43;;
69985;SDS011;57328;52.054;5.294;2023-05-07T08:53:44;19.13;;;13.10;;
69985;SDS011;57328;52.054;5.294;2023-05-07T08:56:11;23.50;;;13.43;;
69985;SDS011;57328;52.054;5.294;2023-05-07T08:58:39;20.17;;;12.65;;
69985;SDS011;57328;52.054;5.294;2023-05-07T09:01:07;22.52;;;13.25;;
69985;SDS011;57328;52.054;5.294;2023-05-07T09:03:39;19.13;;;12.50;;
69985;SDS011;57328;52.054;5.294;2023-05-07T09:06:06;19.83;;;12.18;;
69985;SDS011;57328;52.054;5.294;2023-05-07T09:08:33;16.65;;;10.38;;
69985;SDS011;57328;52.054;5.294;2023-05-07T09:11:01;15.38;;;9.23;;
69985;SDS011;57328;52.054;5.294;2023-05-07T09:13:28;16.20;;;9.77;;
69985;SDS011;57328;52.054;5.294;2023-05-07T09:15:55;16.42;;;10.57;;
69985;SDS011;57328;52.054;5.294;2023-05-07T09:18:23;14.25;;;8.18;;
69985;SDS011;57328;52.054;5.294;2023-05-07T09:20:51;13.60;;;7.90;;
69985;SDS011;57328;52.054;5.294;2023-05-07T09:23:18;13.45;;;7.15;;
69985;SDS011;57328;52.054;5.294;2023-05-07T09:25:47;10.73;;;6.50;;
69985;SDS011;57328;52.054;5.294;2023-05-07T09:28:14;10.07;;;6.18;;
69985;SDS011;57328;52.054;5.294;2023-05-07T09:30:41;11.45;;;6.72;;
69985;SDS011;57328;52.054;5.294;2023-05-07T09:33:09;10.50;;;7.00;;
69985;SDS011;57328;52.054;5.294;2023-05-07T09:35:37;11.90;;;7.10;;
69985;SDS011;57328;52.054;5.294;2023-05-07T09:38:04;14.45;;;8.23;;
69985;SDS011;57328;52.054;5.294;2023-05-07T09:40:31;12.93;;;8.65;;
69985;SDS011;57328;52.054;5.294;2023-05-07T09:43:11;13.30;;;8.98;;
69985;SDS011;57328;52.054;5.294;2023-05-07T09:45:41;14.20;;;10.13;;
69985;SDS011;57328;52.054;5.294;2023-05-07T09:48:08;13.77;;;9.57;;
69985;SDS011;57328;52.054;5.294;2023-05-07T09:50:36;14.95;;;10.57;;
69985;SDS011;57328;52.054;5.294;2023-05-07T09:53:06;15.02;;;10.88;;
69985;SDS011;57328;52.054;5.294;2023-05-07T09:55:33;17.10;;;11.77;;
69985;SDS011;57328;52.054;5.294;2023-05-07T09:58:01;16.42;;;11.93;;
69985;SDS011;57328;52.054;5.294;2023-05-07T10:00:28;19.63;;;13.40;;
69985;SDS011;57328;52.054;5.294;2023-05-07T10:02:57;22.05;;;13.05;;
69985;SDS011;57328;52.054;5.294;2023-05-07T10:05:24;19.58;;;13.45;;
69985;SDS011;57328;52.054;5.294;2023-05-07T10:07:52;18.95;;;13.43;;
69985;SDS011;57328;52.054;5.294;2023-05-07T10:10:19;19.38;;;13.57;;
69985;SDS011;57328;52.054;5.294;2023-05-07T10:12:47;19.40;;;13.15;;
69985;SDS011;57328;52.054;5.294;2023-05-07T10:15:14;19.67;;;13.90;;
69985;SDS011;57328;52.054;5.294;2023-05-07T10:17:41;19.33;;;13.90;;
69985;SDS011;57328;52.054;5.294;2023-05-07T10:20:09;19.17;;;14.10;;
69985;SDS011;57328;52.054;5.294;2023-05-07T10:22:41;18.35;;;14.02;;
69985;SDS011;57328;52.054;5.294;2023-05-07T10:25:18;19.52;;;14.57;;
69985;SDS011;57328;52.054;5.294;2023-05-07T10:27:45;20.15;;;14.52;;
69985;SDS011;57328;52.054;5.294;2023-05-07T10:32:48;20.02;;;14.43;;
69985;SDS011;57328;52.054;5.294;2023-05-07T10:35:29;22.88;;;14.90;;
69985;SDS011;57328;52.054;5.294;2023-05-07T10:37:58;19.70;;;14.88;;
69985;SDS011;57328;52.054;5.294;2023-05-07T10:40:25;18.23;;;13.90;;
69985;SDS011;57328;52.054;5.294;2023-05-07T10:42:53;20.17;;;14.07;;
69985;SDS011;57328;52.054;5.294;2023-05-07T10:50:47;19.45;;;14.00;;
69985;SDS011;57328;52.054;5.294;2023-05-07T10:55:46;18.20;;;12.68;;
69985;SDS011;57328;52.054;5.294;2023-05-07T10:58:29;17.92;;;13.27;;
69985;SDS011;57328;52.054;5.294;2023-05-07T11:01:01;21.08;;;12.68;;
69985;SDS011;57328;52.054;5.294;2023-05-07T11:03:28;18.20;;;12.85;;
69985;SDS011;57328;52.054;5.294;2023-05-07T11:06:15;15.25;;;11.82;;
69985;SDS011;57328;52.054;5.294;2023-05-07T11:11:18;15.95;;;11.77;;
69985;SDS011;57328;52.054;5.294;2023-05-07T11:16:20;18.10;;;11.10;;
69985;SDS011;57328;52.054;5.294;2023-05-07T11:18:52;14.10;;;10.10;;
69985;SDS011;57328;52.054;5.294;2023-05-07T11:21:54;16.55;;;10.50;;
69985;SDS011;57328;52.054;5.294;2023-05-07T11:24:14;17.25;;;10.82;;
69985;SDS011;57328;52.054;5.294;2023-05-07T11:26:46;16.35;;;10.50;;
69985;SDS011;57328;52.054;5.294;2023-05-07T11:29:15;15.68;;;10.50;;
69985;SDS011;57328;52.054;5.294;2023-05-07T11:31:50;15.10;;;11.45;;
69985;SDS011;57328;52.054;5.294;2023-05-07T11:34:21;17.52;;;11.20;;
69985;SDS011;57328;52.054;5.294;2023-05-07T11:36:49;13.70;;;10.15;;
69985;SDS011;57328;52.054;5.294;2023-05-07T11:39:26;15.45;;;10.77;;
69985;SDS011;57328;52.054;5.294;2023-05-07T11:41:54;13.18;;;9.00;;
69985;SDS011;57328;52.054;5.294;2023-05-07T11:44:21;15.70;;;8.45;;
69985;SDS011;57328;52.054;5.294;2023-05-07T11:46:48;13.85;;;9.63;;
69985;SDS011;57328;52.054;5.294;2023-05-07T11:49:16;16.98;;;10.90;;
69985;SDS011;57328;52.054;5.294;2023-05-07T11:51:43;16.60;;;10.77;;
69985;SDS011;57328;52.054;5.294;2023-05-07T11:54:15;17.08;;;11.43;;
69985;SDS011;57328;52.054;5.294;2023-05-07T11:56:43;16.77;;;12.15;;
69985;SDS011;57328;52.054;5.294;2023-05-07T11:59:11;16.10;;;11.10;;
69985;SDS011;57328;52.054;5.294;2023-05-07T12:01:38;16.77;;;11.75;;
69985;SDS011;57328;52.054;5.294;2023-05-07T12:04:05;20.08;;;12.30;;
69985;SDS011;57328;52.054;5.294;2023-05-07T12:06:35;16.95;;;11.45;;
69985;SDS011;57328;52.054;5.294;2023-05-07T12:09:04;18.75;;;12.23;;
69985;SDS011;57328;52.054;5.294;2023-05-07T12:11:33;17.25;;;11.07;;
69985;SDS011;57328;52.054;5.294;2023-05-07T12:14:00;16.17;;;11.25;;
69985;SDS011;57328;52.054;5.294;2023-05-07T12:16:29;15.73;;;11.63;;
69985;SDS011;57328;52.054;5.294;2023-05-07T12:18:56;15.70;;;11.15;;
69985;SDS011;57328;52.054;5.294;2023-05-07T12:21:25;12.73;;;8.35;;
69985;SDS011;57328;52.054;5.294;2023-05-07T12:23:52;13.55;;;8.90;;
69985;SDS011;57328;52.054;5.294;2023-05-07T12:26:19;15.30;;;10.43;;
69985;SDS011;57328;52.054;5.294;2023-05-07T12:28:47;13.73;;;10.10;;
69985;SDS011;57328;52.054;5.294;2023-05-07T12:31:14;14.15;;;9.02;;
69985;SDS011;57328;52.054;5.294;2023-05-07T12:33:42;14.30;;;8.07;;
69985;SDS011;57328;52.054;5.294;2023-05-07T12:36:11;12.43;;;7.75;;
69985;SDS011;57328;52.054;5.294;2023-05-07T12:38:39;12.63;;;7.70;;
69985;SDS011;57328;52.054;5.294;2023-05-07T12:43:34;11.45;;;6.43;;
69985;SDS011;57328;52.054;5.294;2023-05-07T12:46:03;9.65;;;5.82;;
69985;SDS011;57328;52.054;5.294;2023-05-07T12:48:30;9.45;;;5.30;;
69985;SDS011;57328;52.054;5.294;2023-05-07T12:50:59;12.77;;;5.97;;
69985;SDS011;57328;52.054;5.294;2023-05-07T12:53:27;8.82;;;6.10;;
69985;SDS011;57328;52.054;5.294;2023-05-07T12:55:55;11.57;;;5.65;;
69985;SDS011;57328;52.054;5.294;2023-05-07T12:58:26;9.98;;;5.50;;
69985;SDS011;57328;52.054;5.294;2023-05-07T13:00:54;9.75;;;5.43;;
69985;SDS011;57328;52.054;5.294;2023-05-07T13:03:30;9.07;;;4.70;;
69985;SDS011;57328;52.054;5.294;2023-05-07T13:06:01;9.05;;;4.70;;
69985;SDS011;57328;52.054;5.294;2023-05-07T13:08:30;8.98;;;4.88;;
69985;SDS011;57328;52.054;5.294;2023-05-07T13:11:01;11.18;;;4.35;;
69985;SDS011;57328;52.054;5.294;2023-05-07T13:13:34;8.15;;;4.18;;
69985;SDS011;57328;52.054;5.294;2023-05-07T13:16:01;12.20;;;4.15;;
69985;SDS011;57328;52.054;5.294;2023-05-07T13:20:56;7.53;;;3.78;;
69985;SDS011;57328;52.054;5.294;2023-05-07T13:23:23;8.70;;;4.40;;
69985;SDS011;57328;52.054;5.294;2023-05-07T13:25:51;11.27;;;4.97;;
69985;SDS011;57328;52.054;5.294;2023-05-07T13:28:23;11.05;;;4.63;;
69985;SDS011;57328;52.054;5.294;2023-05-07T13:30:50;9.35;;;4.32;;
69985;SDS011;57328;52.054;5.294;2023-05-07T13:33:18;9.73;;;4.40;;
69985;SDS011;57328;52.054;5.294;2023-05-07T13:35:45;16.90;;;6.53;;
69985;SDS011;57328;52.054;5.294;2023-05-07T13:38:12;10.85;;;5.35;;
69985;SDS011;57328;52.054;5.294;2023-05-07T13:40:42;7.47;;;4.05;;
69985;SDS011;57328;52.054;5.294;2023-05-07T13:43:09;9.25;;;4.28;;
69985;SDS011;57328;52.054;5.294;2023-05-07T13:45:36;8.35;;;4.20;;
69985;SDS011;57328;52.054;5.294;2023-05-07T13:48:04;7.13;;;3.85;;
69985;SDS011;57328;52.054;5.294;2023-05-07T13:50:31;8.95;;;4.70;;
69985;SDS011;57328;52.054;5.294;2023-05-07T13:52:58;9.57;;;5.10;;
69985;SDS011;57328;52.054;5.294;2023-05-07T13:55:28;8.25;;;4.60;;
69985;SDS011;57328;52.054;5.294;2023-05-07T13:57:56;7.75;;;3.78;;
69985;SDS011;57328;52.054;5.294;2023-05-07T14:02:50;8.82;;;4.43;;
69985;SDS011;57328;52.054;5.294;2023-05-07T14:05:18;8.45;;;4.22;;
69985;SDS011;57328;52.054;5.294;2023-05-07T14:07:46;12.10;;;5.53;;
69985;SDS011;57328;52.054;5.294;2023-05-07T14:10:15;10.52;;;5.50;;
69985;SDS011;57328;52.054;5.294;2023-05-07T14:12:42;8.98;;;5.38;;
69985;SDS011;57328;52.054;5.294;2023-05-07T14:15:09;11.52;;;7.25;;
69985;SDS011;57328;52.054;5.294;2023-05-07T14:17:36;10.60;;;6.30;;
69985;SDS011;57328;52.054;5.294;2023-05-07T14:20:04;10.50;;;5.35;;
69985;SDS011;57328;52.054;5.294;2023-05-07T14:22:34;9.68;;;5.10;;
69985;SDS011;57328;52.054;5.294;2023-05-07T14:25:01;9.75;;;5.28;;
69985;SDS011;57328;52.054;5.294;2023-05-07T14:27:34;10.10;;;5.45;;
69985;SDS011;57328;52.054;5.294;2023-05-07T14:30:02;8.63;;;5.18;;
69985;SDS011;57328;52.054;5.294;2023-05-07T14:32:29;8.90;;;4.57;;
69985;SDS011;57328;52.054;5.294;2023-05-07T14:34:56;7.35;;;4.30;;
69985;SDS011;57328;52.054;5.294;2023-05-07T14:37:23;7.53;;;3.90;;
69985;SDS011;57328;52.054;5.294;2023-05-07T14:39:51;11.05;;;4.50;;
69985;SDS011;57328;52.054;5.294;2023-05-07T14:42:18;8.98;;;3.20;;
69985;SDS011;57328;52.054;5.294;2023-05-07T14:44:45;6.85;;;3.20;;
69985;SDS011;57328;52.054;5.294;2023-05-07T14:47:14;7.03;;;4.22;;
69985;SDS011;57328;52.054;5.294;2023-05-07T14:49:44;10.30;;;4.90;;
69985;SDS011;57328;52.054;5.294;2023-05-07T14:52:12;7.30;;;4.45;;
69985;SDS011;57328;52.054;5.294;2023-05-07T14:54:39;9.13;;;5.13;;
69985;SDS011;57328;52.054;5.294;2023-05-07T14:57:08;10.13;;;4.70;;
69985;SDS011;57328;52.054;5.294;2023-05-07T14:59:37;10.32;;;5.63;;
69985;SDS011;57328;52.054;5.294;2023-05-07T15:02:04;10.52;;;5.55;;
69985;SDS011;57328;52.054;5.294;2023-05-07T15:04:34;9.70;;;5.90;;